Auburn, MA

8:41 AM EST on November 12, 2019 (GMT -0500)
Prospect Hill Auburn | | Change Station
Active Advisory: Special Statement

Elev 741 ft 42.18 °N, 71.86 °W | Updated 11 minutes ago

Rain
Rain
36.6 °F
Feels Like 37 °F
N
0
Wind Variable Wind from ENE
Gusts 0.0 mph

Today
High -- | Low -- °F
--% Chance of Precip.
Yesterday
High -- | Low -- °F
Precip. -- in
Pressure 29.69 in
Visibility 0.2 miles
Clouds
Windchill 37 °F
Dew Point 36 °F
Humidity 97%
Rainfall 0.00 in
Snow Depth Not available.
6:33 AM 4:28 PM
Full, 100% visible
METAR KORH 121254Z 02003KT M1/4SM R11/0800V1000FT FG VV002 01/01 A2966 RMK AO2 SLP053 T00110011
Pressure 29.69 in
Visibility 0.2 miles
Clouds
Windchill 37 °F
Dew Point 36 °F
Humidity 97%
Rainfall 0.00 in
Snow Depth Not available.
6:33 AM 4:28 PM
Full, 100% visible
METAR KORH 121254Z 02003KT M1/4SM R11/0800V1000FT FG VV002 01/01 A2966 RMK AO2 SLP053 T00110011

Get Your Daily Forecast Email!

Thanks for signing up!

Be on the lookout for a verification email in your inbox.

You'll start receiving severe weather alerts in your inbox..

×

10-Day Weather Forecast

Almanac

Astronomy

Nov. 12, 2019 Rise Set
Actual Time
Civil Twilight
Nautical Twilight
Astronomical Twilight
Moon
Length of Visible Light
Length of Day
Tomorrow will be .
, % of the Moon is Illuminated

Today's Extremes

State Highs State Lows

Community

WunderPhotos

Category 6

Welcome to Category 6. This is the collective home for Weather Underground's featured writeups by Dr. Jeff Masters (right), Bob Henson (left), Chris Burt, and other regular contributors.

Nearby

Air Quality

  Air Quality AQ Index Pollutant
Not available.

Snow Depth

Station Depth Elevation

Earthquake Activity

City Distance Mag. Time & Date
Minimum magnitude displayed is 2.5.

Coastal Water Temperatures

Place Temperature

Stations

Nearby Weather Stations

Station Location Temp. Windchill Dew Point Humidity Wind Precip. Elev Updated Type
                   

Watches & Warnings

Special Statement
Issued: 8:19 AM EST Nov. 12, 2019 – National Weather Service

... A brief period of light freezing rain possible through 11 am
across western, central and northeast Massachusetts...

Temperatures continued to hover near freezing across western and
central Massachusetts as well as parts of northeast Massachusetts
mid morning. A band of light rain crossing the region may cause
icy patches on some untreated roads. Motorists should drive with
extra caution this morning.


Wtb


819 am EST Tue Nov 12 2019

... A brief period of light freezing rain possible through 11 am
across western, central and northeast Massachusetts...

Temperatures continued to hover near freezing across western and
central Massachusetts as well as parts of northeast Massachusetts
mid morning. A band of light rain crossing the region may cause
icy patches on some untreated roads. Motorists should drive with
extra caution this morning.


Wtb